Portada
METAR-TAF:

METAR-TAF

Aeroports :

Ciutat de Panamà, Panamà

latitud: 08-59N, longitud: 079-31W, altitud: 13 m

Observació

L'informe es va fer fa 51 minuts, a les 09:00 UTC
Vent 4 kt del Nord-Oest
Temperatura 26°C
Humitat 84%
Pressió 1008 hPa

METAR: MPMG 150900Z AUTO 31004KT //// R01///// // NCD 26/23 Q1008

Hora: 04:51 (09:51 UTC)

Pronòstic

Pronòstic vàlid del 14 a les 23 UTC al 15 a les 15 UTC
Vent 7 kt del Nord/Nord-Oest
Visibilitat 10 km o més
Escasses núvols a una alçada de 1800 ft

TAF: MPMG 142315 1500/1512 33007KT 9999 FEW018

Observacions i pronòstics meteorològics de més de 4000 aeroports (METAR i TAF).

Les estacions disponibles són els punts grocs i vermells al mapa.

Posi el ratolí al punt desitjat per veure el nom de l'estació.

Feu clic per veure les observacions i els pronòstics meteorològics.

Per canviar el mapa: feu clic els botons verds amb una creu de color negre per apropar; al botó verd amb un guió per allunyar la imatge; o en les fletxes verdes per a mapes adjacents.


METAR-TAF: